Mary Ann — WCY5683 — position and weather

sailwx.info

Track history (hours):
 
Tides and Currents Weather Stations Pressure Air Temp Water Temp Dewpoint Dewpoint Depression Visibility Wind Speed Wind Dir Waves Ship Positions

Mary Ann

Owner: GETZ, TIMOTHY M, SEAVILLE, NJ. More information available from US FCC via Universal Licensing System and Coast Guard Vessel Documentation Center.

Last reported at 2017-Jan-23 20:31 UTC. Time now 2017-Jan-23 21:08 UTC.
Position N 34°43' W 076°40'.

Length 22 m.

Type: Fishing. MMSI: 338382000.

Date/timePositionNaut miles runAvg speedWind from/ knotsBaromVisibWave heightAir tempDewpointWater temp
2017-Jan-23 20:31N 34°43' W 076°40'0 0.0
2017-Jan-23 19:31N 34°43' W 076°40'0 0.0
2017-Jan-23 18:31N 34°43' W 076°40'0 0.0
2017-Jan-23 17:31N 34°43' W 076°40'0 0.0
2017-Jan-23 16:31N 34°43' W 076°40'0 0.0
2017-Jan-23 15:31N 34°43' W 076°40'0 0.0
2017-Jan-23 14:31N 34°43' W 076°40'0 0.0
2017-Jan-23 13:31N 34°43' W 076°40'0 0.0
2017-Jan-23 12:31N 34°43' W 076°40'0 0.0
2017-Jan-23 11:31N 34°43' W 076°40'0 0.0
2017-Jan-23 10:31N 34°43' W 076°40'0 0.0
2017-Jan-23 09:31N 34°43' W 076°40'0 0.0
2017-Jan-23 08:31N 34°43' W 076°40'0 0.0
2017-Jan-23 07:31N 34°43' W 076°40'0 0.0
2017-Jan-23 06:31N 34°43' W 076°40'0 0.0
2017-Jan-23 05:31N 34°43' W 076°40'0 0.0
2017-Jan-23 04:31N 34°43' W 076°40'0 0.0
2017-Jan-23 03:31N 34°43' W 076°40'0 0.0
2017-Jan-23 02:31N 34°43' W 076°40'0 0.0
2017-Jan-23 01:31N 34°43' W 076°40'0 0.0
2017-Jan-23 00:31N 34°43' W 076°40'0 0.0
2017-Jan-22 23:31N 34°43' W 076°40'0 0.0
2017-Jan-22 22:31N 34°43' W 076°40'0 0.0
2017-Jan-22 21:31N 34°43' W 076°40'0 0.0
2017-Jan-22 20:31N 34°43' W 076°40'0 0.0
2017-Jan-22 19:31N 34°43' W 076°40'0 0.0
2017-Jan-22 18:25N 34°43' W 076°40'0 0.0
2017-Jan-22 17:31N 34°43' W 076°40'0 0.0
2017-Jan-22 16:31N 34°43' W 076°40'0 0.0
2017-Jan-22 15:31N 34°43' W 076°40'0 0.0
2017-Jan-22 14:31N 34°43' W 076°40'0 0.0
2017-Jan-22 13:31N 34°43' W 076°40'0 0.0
2017-Jan-22 12:31N 34°43' W 076°40'0 0.0
2017-Jan-22 11:31N 34°43' W 076°40'0 0.0
2017-Jan-22 10:31N 34°43' W 076°40'0 0.0
2017-Jan-22 09:31N 34°43' W 076°40'0 0.0
2017-Jan-22 08:31N 34°43' W 076°40'4 4.2
2017-Jan-22 07:33N 34°39' W 076°40'  
2017-Jan-19 21:31N 34°34' W 076°44'7 6.9
2017-Jan-19 20:34N 34°40' W 076°40'3 3.5
2017-Jan-19 19:33N 34°43' W 076°40'0 0.0
2017-Jan-19 18:33N 34°43' W 076°40'0 0.0
2017-Jan-19 17:33N 34°43' W 076°40'0 0.0
2017-Jan-19 16:33N 34°43' W 076°40'0 0.0
2017-Jan-19 15:33N 34°43' W 076°40'0 0.0
2017-Jan-19 14:33N 34°43' W 076°40'0 0.0
2017-Jan-19 13:33N 34°43' W 076°40'0 0.0
2017-Jan-19 12:33N 34°43' W 076°40'0 0.0
2017-Jan-19 11:33N 34°43' W 076°40'0 0.0
2017-Jan-19 10:33N 34°43' W 076°40'0 0.0
2017-Jan-19 09:33N 34°43' W 076°40'0 0.0
2017-Jan-19 08:33N 34°43' W 076°40'0 0.0
2017-Jan-19 07:33N 34°43' W 076°40'0 0.0
2017-Jan-19 06:33N 34°43' W 076°40'0 0.0
2017-Jan-19 05:33N 34°43' W 076°40'0 0.0
2017-Jan-19 04:33N 34°43' W 076°40'0 0.0
2017-Jan-19 03:33N 34°43' W 076°40'0 0.0
2017-Jan-19 02:33N 34°43' W 076°40'0 0.0
2017-Jan-19 01:33N 34°43' W 076°40'0 0.0
2017-Jan-19 00:33N 34°43' W 076°40'0 0.0
2017-Jan-18 23:33N 34°43' W 076°40'0 0.0
2017-Jan-18 22:33N 34°43' W 076°40'0 0.0
2017-Jan-18 21:33N 34°43' W 076°40'0 0.0
2017-Jan-18 20:33N 34°43' W 076°40'0 0.0
2017-Jan-18 19:33N 34°43' W 076°40'0 0.0
2017-Jan-18 18:33N 34°43' W 076°40'0 0.0
2017-Jan-18 17:33N 34°43' W 076°40'0 0.1
2017-Jan-18 16:33N 34°43' W 076°40'0 0.0
2017-Jan-18 15:33N 34°43' W 076°40'0 0.0
2017-Jan-18 14:33N 34°43' W 076°40'0 0.1
2017-Jan-18 13:33N 34°43' W 076°40'0 0.1
2017-Jan-18 12:31N 34°43' W 076°40'0 0.0
2017-Jan-18 11:33N 34°43' W 076°40'0 0.0
2017-Jan-18 10:33N 34°43' W 076°40'0 0.0
2017-Jan-18 09:33N 34°43' W 076°40'0 0.0
2017-Jan-18 08:33N 34°43' W 076°40'0 0.0
2017-Jan-18 07:33N 34°43' W 076°40'1 1.4
2017-Jan-18 06:33N 34°42' W 076°41'7 6.6
2017-Jan-18 05:33N 34°36' W 076°38'  
Track history (hours):
 
Tides and Currents Weather Stations Pressure Air Temp Water Temp Dewpoint Dewpoint Depression Visibility Wind Speed Wind Dir Waves Ship Positions

Mary Ann

Owner: GETZ, TIMOTHY M, SEAVILLE, NJ. More information available from US FCC via Universal Licensing System and Coast Guard Vessel Documentation Center.

Last reported at 2017-Jan-23 20:31 UTC. Time now 2017-Jan-23 21:08 UTC.
Position N 34°43' W 076°40'.

Length 22 m.

Type: Fishing. MMSI: 338382000.

Date/timePositionNaut miles runAvg speedWind from/ knotsBaromVisibWave heightAir tempDewpointWater temp
2017-Jan-23 20:31N 34°43' W 076°40'0 0.0
2017-Jan-23 19:31N 34°43' W 076°40'0 0.0
2017-Jan-23 18:31N 34°43' W 076°40'0 0.0
2017-Jan-23 17:31N 34°43' W 076°40'0 0.0
2017-Jan-23 16:31N 34°43' W 076°40'0 0.0
2017-Jan-23 15:31N 34°43' W 076°40'0 0.0
2017-Jan-23 14:31N 34°43' W 076°40'0 0.0
2017-Jan-23 13:31N 34°43' W 076°40'0 0.0
2017-Jan-23 12:31N 34°43' W 076°40'0 0.0
2017-Jan-23 11:31N 34°43' W 076°40'0 0.0
2017-Jan-23 10:31N 34°43' W 076°40'0 0.0
2017-Jan-23 09:31N 34°43' W 076°40'0 0.0
2017-Jan-23 08:31N 34°43' W 076°40'0 0.0
2017-Jan-23 07:31N 34°43' W 076°40'0 0.0
2017-Jan-23 06:31N 34°43' W 076°40'0 0.0
2017-Jan-23 05:31N 34°43' W 076°40'0 0.0
2017-Jan-23 04:31N 34°43' W 076°40'0 0.0
2017-Jan-23 03:31N 34°43' W 076°40'0 0.0
2017-Jan-23 02:31N 34°43' W 076°40'0 0.0
2017-Jan-23 01:31N 34°43' W 076°40'0 0.0
2017-Jan-23 00:31N 34°43' W 076°40'0 0.0
2017-Jan-22 23:31N 34°43' W 076°40'0 0.0
2017-Jan-22 22:31N 34°43' W 076°40'0 0.0
2017-Jan-22 21:31N 34°43' W 076°40'0 0.0
2017-Jan-22 20:31N 34°43' W 076°40'0 0.0
2017-Jan-22 19:31N 34°43' W 076°40'0 0.0
2017-Jan-22 18:25N 34°43' W 076°40'0 0.0
2017-Jan-22 17:31N 34°43' W 076°40'0 0.0
2017-Jan-22 16:31N 34°43' W 076°40'0 0.0
2017-Jan-22 15:31N 34°43' W 076°40'0 0.0
2017-Jan-22 14:31N 34°43' W 076°40'0 0.0
2017-Jan-22 13:31N 34°43' W 076°40'0 0.0
2017-Jan-22 12:31N 34°43' W 076°40'0 0.0
2017-Jan-22 11:31N 34°43' W 076°40'0 0.0
2017-Jan-22 10:31N 34°43' W 076°40'0 0.0
2017-Jan-22 09:31N 34°43' W 076°40'0 0.0
2017-Jan-22 08:31N 34°43' W 076°40'4 4.2
2017-Jan-22 07:33N 34°39' W 076°40'  
2017-Jan-19 21:31N 34°34' W 076°44'7 6.9
2017-Jan-19 20:34N 34°40' W 076°40'3 3.5
2017-Jan-19 19:33N 34°43' W 076°40'0 0.0
2017-Jan-19 18:33N 34°43' W 076°40'0 0.0
2017-Jan-19 17:33N 34°43' W 076°40'0 0.0
2017-Jan-19 16:33N 34°43' W 076°40'0 0.0
2017-Jan-19 15:33N 34°43' W 076°40'0 0.0
2017-Jan-19 14:33N 34°43' W 076°40'0 0.0
2017-Jan-19 13:33N 34°43' W 076°40'0 0.0
2017-Jan-19 12:33N 34°43' W 076°40'0 0.0
2017-Jan-19 11:33N 34°43' W 076°40'0 0.0
2017-Jan-19 10:33N 34°43' W 076°40'0 0.0
2017-Jan-19 09:33N 34°43' W 076°40'0 0.0
2017-Jan-19 08:33N 34°43' W 076°40'0 0.0
2017-Jan-19 07:33N 34°43' W 076°40'0 0.0
2017-Jan-19 06:33N 34°43' W 076°40'0 0.0
2017-Jan-19 05:33N 34°43' W 076°40'0 0.0
2017-Jan-19 04:33N 34°43' W 076°40'0 0.0
2017-Jan-19 03:33N 34°43' W 076°40'0 0.0
2017-Jan-19 02:33N 34°43' W 076°40'0 0.0
2017-Jan-19 01:33N 34°43' W 076°40'0 0.0
2017-Jan-19 00:33N 34°43' W 076°40'0 0.0
2017-Jan-18 23:33N 34°43' W 076°40'0 0.0
2017-Jan-18 22:33N 34°43' W 076°40'0 0.0
2017-Jan-18 21:33N 34°43' W 076°40'0 0.0
2017-Jan-18 20:33N 34°43' W 076°40'0 0.0
2017-Jan-18 19:33N 34°43' W 076°40'0 0.0
2017-Jan-18 18:33N 34°43' W 076°40'0 0.0
2017-Jan-18 17:33N 34°43' W 076°40'0 0.1
2017-Jan-18 16:33N 34°43' W 076°40'0 0.0
2017-Jan-18 15:33N 34°43' W 076°40'0 0.0
2017-Jan-18 14:33N 34°43' W 076°40'0 0.1
2017-Jan-18 13:33N 34°43' W 076°40'0 0.1
2017-Jan-18 12:31N 34°43' W 076°40'0 0.0
2017-Jan-18 11:33N 34°43' W 076°40'0 0.0
2017-Jan-18 10:33N 34°43' W 076°40'0 0.0
2017-Jan-18 09:33N 34°43' W 076°40'0 0.0
2017-Jan-18 08:33N 34°43' W 076°40'0 0.0
2017-Jan-18 07:33N 34°43' W 076°40'1 1.4
2017-Jan-18 06:33N 34°42' W 076°41'7 6.6
2017-Jan-18 05:33N 34°36' W 076°38'  

Dump ship's entire track history